Detall de PIREP

Printer-friendly versionPDF version

[2015/08/26 15:34:00]
Flight IATA:CT3221
Pilot Number:042
Company ICAO:CAT
Aircraft Type:B738/F
PAX:123
Departing Airport: LCLK
Destination Airport: LEPA
Alternate Airport:LEBL
Online: VATSIM
Route:PHA UM31 MAROS G18 ALKIS UL609 RDS UM601 QUENN UM622 SUKUN UM603 KOLUS UZ924 RIPAL UM603 MORSS
Flight Level:F360
No Slew and time accel
No pause
Crash detect
Detect pilot in Cockpit between each 30 and 45 minutes
15:34 Zero fuel Weight: 121806 Lbs, Fuel Weight: 46056 Lbs
15:34 VATSIM:LCLK 261500Z 20009KT 9999 FEW030 31/21 Q1007 NOSIG
15:34 VATSIM:LEPA 261500Z 24013KT 9999 FEW028 30/18 Q1016 NOSIG
15:45 Parking Brakes off
15:52 Take-off
15:52 Take off Weight: 167088 Lbs
15:52 Wind: 206º @ 008 Knots Heading: 224º
15:52 POS N34º 52´ 17´´ E033º 37´ 15´´
15:52 Gear Up: 167 Knots
15:52 Flaps:4 at 167 Knots
15:52 Flaps:3 at 162 Knots
15:53 Flaps:2 at 189 Knots
15:53 Flaps:1 at 211 Knots
15:53 Flaps:0 at 231 Knots
16:07 Wind:244º@030 Knots Heading: 264º Ground Speed: 443 Knots Altitude 24675 ft
16:22 Wind:244º@039 Knots Heading: 302º Ground Speed: 447 Knots Altitude 34724 ft
16:37 Wind:257º@034 Knots Heading: 281º Ground Speed: 434 Knots Altitude 34740 ft
16:52 Wind:269º@022 Knots Heading: 277º Ground Speed: 441 Knots Altitude 34829 ft
17:07 Wind:288º@016 Knots Heading: 290º Ground Speed: 446 Knots Altitude 34934 ft
17:20 TOC
17:20 Fuel Weight: 34437 Lb
17:22 Wind:292º@012 Knots Heading: 295º Ground Speed: 448 Knots Altitude 35994 ft
17:37 Wind:301º@014 Knots Heading: 288º Ground Speed: 446 Knots Altitude 36010 ft
17:52 Wind:300º@013 Knots Heading: 278º Ground Speed: 447 Knots Altitude 36056 ft
18:07 Wind:285º@010 Knots Heading: 277º Ground Speed: 450 Knots Altitude 36066 ft
18:22 Wind:319º@012 Knots Heading: 287º Ground Speed: 450 Knots Altitude 36062 ft
18:37 Wind:325º@010 Knots Heading: 320º Ground Speed: 450 Knots Altitude 36099 ft
18:52 Wind:311º@010 Knots Heading: 261º Ground Speed: 453 Knots Altitude 36076 ft
19:06 TOD
19:06 Fuel Weight: 25102 Lb
19:07 Wind:239º@009 Knots Heading: 259º Ground Speed: 447 Knots Altitude 33795 ft
19:22 Wind:296º@008 Knots Heading: 274º Ground Speed: 270 Knots Altitude 8369 ft
19:24 Flaps:1 at 212 Knots
19:25 Flaps:2 at 204 Knots
19:26 Flaps:3 at 191 Knots
19:26 Gear Down: 207 Knots
19:26 Flaps:4 at 214 Knots
19:26 Flaps:5 at 215 Knots
19:27 Flaps:6 at 203 Knots
19:27 Flaps:7 at 184 Knots
19:28 Flaps:8 at 155 Knots
19:30 TouchDown:Rate -133 ft/min Speed: 138 Knots
19:31 VATSIM:LEPA 261900Z 24006KT CAVOK 26/20 Q1015 NOSIG
19:31 Land
19:31 Wind:240º@006 Knots
19:31 Heading: 238º
19:31 Flight Duration: 03:39
19:31 Landing Weight: 145826 Lbs
19:31 POS N39º 32´ 54´´ E002º 44´ 49´´
19:33 Parking brakes on
19:33 Block to Block Duration: 03:48
19:33 Final Fuel: 23882 Lbls
19:33 Spent Fuel: 22173 Lbls
19:33 Flight Length: 1558 NM
19:33 TOD Land Length: 129 NM

Exportar CSV

Powered by Drupal - Modified by Danger4k